createdAt,value
2023-03-11T00:02:13.038Z,0.30
2023-03-11T00:04:46.991Z,0.20
2023-03-11T00:07:21.408Z,0.28
2023-03-11T00:09:55.693Z,0.28
2023-03-11T00:12:26.084Z,0.47
2023-03-11T00:17:40.450Z,0.22
2023-03-11T00:20:30.657Z,0.30
2023-03-11T00:23:08.791Z,0.57
2023-03-11T00:25:40.863Z,0.40
2023-03-11T00:28:11.234Z,0.40
2023-03-11T00:30:40.970Z,0.25
2023-03-11T00:33:10.918Z,0.28
2023-03-11T00:35:44.201Z,0.20
2023-03-11T00:38:30.585Z,0.20
2023-03-11T00:41:02.266Z,0.23
2023-03-11T00:46:52.384Z,0.20
2023-03-11T00:49:22.397Z,0.20
2023-03-11T00:52:09.135Z,0.20
2023-03-11T00:54:46.816Z,0.30
2023-03-11T00:57:15.443Z,0.20
2023-03-11T00:59:41.884Z,0.40
2023-03-11T01:02:08.524Z,0.40
2023-03-11T01:04:43.340Z,0.47
2023-03-11T01:07:17.484Z,0.73
2023-03-11T01:09:47.462Z,0.20
2023-03-11T01:12:16.138Z,0.28
2023-03-11T01:14:44.699Z,0.20
2023-03-11T01:17:11.954Z,0.20
2023-03-11T01:19:45.676Z,0.10
2023-03-11T01:22:16.632Z,0.20
2023-03-11T01:24:50.798Z,0.30
2023-03-11T01:27:23.445Z,0.15
2023-03-11T01:29:53.768Z,0.40
2023-03-11T01:32:21.344Z,0.20
2023-03-11T01:34:51.737Z,0.65
2023-03-11T01:37:40.323Z,0.30
2023-03-11T01:40:32.402Z,0.20
2023-03-11T01:43:15.891Z,0.10
2023-03-11T01:45:51.414Z,0.13
2023-03-11T01:48:22.717Z,0.30
2023-03-11T01:50:55.026Z,0.10
2023-03-11T01:53:25.969Z,0.40
2023-03-11T01:55:56.424Z,0.17
2023-03-11T01:58:46.393Z,0.30
2023-03-11T02:01:19.446Z,0.40
2023-03-11T02:06:52.359Z,0.30
2023-03-11T02:09:26.683Z,0.30
2023-03-11T02:12:14.864Z,0.50
2023-03-11T02:14:45.770Z,0.20
2023-03-11T02:17:13.972Z,0.17
2023-03-11T02:19:55.183Z,0.08
2023-03-11T02:22:23.668Z,0.20
2023-03-11T02:25:20.571Z,0.17
2023-03-11T02:27:53.320Z,0.47
2023-03-11T02:30:25.882Z,0.55
2023-03-11T02:35:40.498Z,0.38
2023-03-11T02:38:07.936Z,0.10
2023-03-11T02:40:52.410Z,0.10
2023-03-11T02:43:35.720Z,0.47
2023-03-11T02:46:04.486Z,0.30
2023-03-11T02:48:32.586Z,0.32
2023-03-11T02:51:00.229Z,0.10
2023-03-11T02:53:31.325Z,0.20
2023-03-11T02:55:58.739Z,0.30
2023-03-11T02:58:26.841Z,0.28
2023-03-11T03:00:54.195Z,0.30
2023-03-11T03:03:25.422Z,0.30
2023-03-11T03:05:51.907Z,0.20
2023-03-11T03:08:18.477Z,0.20
2023-03-11T03:10:45.753Z,0.43
2023-03-11T03:13:14.533Z,0.30
2023-03-11T03:15:42.516Z,0.10
2023-03-11T03:18:09.450Z,0.20
2023-03-11T03:20:36.030Z,0.10
2023-03-11T03:23:02.887Z,0.10
2023-03-11T03:25:29.439Z,0.43
2023-03-11T03:28:39.637Z,0.30
2023-03-11T03:31:23.442Z,0.40
2023-03-11T03:33:58.476Z,0.43
2023-03-11T03:36:28.817Z,0.20
2023-03-11T03:38:56.794Z,0.20
2023-03-11T03:41:25.388Z,0.13
2023-03-11T03:43:54.641Z,0.40
2023-03-11T03:46:31.731Z,0.35
2023-03-11T03:52:06.767Z,0.22
2023-03-11T03:54:33.698Z,0.30
2023-03-11T03:57:05.239Z,0.28
2023-03-11T03:59:32.013Z,0.15
2023-03-11T04:02:11.828Z,0.20
2023-03-11T04:04:38.713Z,0.10
2023-03-11T04:07:08.585Z,0.10
2023-03-11T04:09:40.669Z,0.32
2023-03-11T04:12:19.250Z,0.20
2023-03-11T04:14:50.924Z,0.20
2023-03-11T04:17:19.377Z,0.25
2023-03-11T04:19:46.154Z,0.10
2023-03-11T04:22:20.020Z,0.20
2023-03-11T04:24:48.493Z,0.10
2023-03-11T04:30:17.451Z,0.17
2023-03-11T04:32:51.441Z,0.10
2023-03-11T04:35:21.781Z,0.40
2023-03-11T04:40:49.517Z,0.22
2023-03-11T04:43:20.049Z,0.10
2023-03-11T04:46:19.418Z,0.40
2023-03-11T04:48:53.321Z,0.08
2023-03-11T04:51:27.313Z,0.35
2023-03-11T04:54:01.465Z,0.30
2023-03-11T04:56:53.608Z,0.10
2023-03-11T04:59:23.534Z,0.20
2023-03-11T05:01:59.296Z,0.30
2023-03-11T05:04:28.134Z,0.10
2023-03-11T05:06:56.761Z,0.10
2023-03-11T05:09:25.541Z,0.25
2023-03-11T05:11:52.222Z,0.23
2023-03-11T05:14:26.018Z,0.20
2023-03-11T05:16:59.909Z,0.15
2023-03-11T05:19:34.595Z,0.20
2023-03-11T05:22:06.526Z,0.00
2023-03-11T05:24:40.345Z,0.07
2023-03-11T05:27:11.932Z,0.10
2023-03-11T05:29:50.471Z,0.10
2023-03-11T05:32:18.912Z,0.20
2023-03-11T05:34:49.772Z,0.10
2023-03-11T05:37:21.250Z,0.13
2023-03-11T05:39:48.180Z,0.13
2023-03-11T05:42:15.070Z,0.10
2023-03-11T05:44:42.411Z,0.50
2023-03-11T05:47:10.898Z,0.05
2023-03-11T05:52:20.181Z,0.10
2023-03-11T05:54:51.405Z,0.32
2023-03-11T05:57:23.610Z,0.10
2023-03-11T05:59:55.345Z,0.13
2023-03-11T06:02:25.236Z,0.13
2023-03-11T06:04:55.559Z,0.10
2023-03-11T06:07:25.666Z,0.10
2023-03-11T06:09:55.608Z,0.13
2023-03-11T06:12:30.116Z,0.30
2023-03-11T06:14:58.565Z,0.10
2023-03-11T06:17:48.407Z,0.10
2023-03-11T06:20:20.189Z,0.30
2023-03-11T06:25:40.757Z,0.03
2023-03-11T06:28:12.583Z,0.10
2023-03-11T06:30:46.658Z,0.10
2023-03-11T06:33:32.408Z,0.10
2023-03-11T06:36:01.906Z,0.20
2023-03-11T06:38:29.566Z,0.10
2023-03-11T06:41:11.988Z,0.20
2023-03-11T06:43:44.338Z,0.13
2023-03-11T06:46:14.154Z,0.30
2023-03-11T06:48:47.404Z,0.30
2023-03-11T06:54:00.115Z,0.40
2023-03-11T06:56:26.549Z,0.73
2023-03-11T06:58:53.788Z,0.90
2023-03-11T07:01:23.170Z,0.85
2023-03-11T07:03:52.498Z,0.73
2023-03-11T07:06:26.404Z,0.23
2023-03-11T07:08:55.889Z,0.40
2023-03-11T07:11:29.612Z,0.43
2023-03-11T07:16:41.642Z,0.20
2023-03-11T07:19:17.035Z,0.20
2023-03-11T07:21:43.804Z,0.40
2023-03-11T07:24:16.684Z,0.20
2023-03-11T07:26:46.942Z,0.20
2023-03-11T07:29:13.450Z,0.30
2023-03-11T07:31:45.844Z,0.20
2023-03-11T07:34:21.305Z,0.30
2023-03-11T07:36:47.986Z,0.40
2023-03-11T07:39:20.099Z,0.10
2023-03-11T07:41:59.189Z,0.20
2023-03-11T07:44:29.622Z,0.20
2023-03-11T07:46:56.435Z,0.30
2023-03-11T07:52:14.539Z,0.40
2023-03-11T07:54:42.448Z,0.30
2023-03-11T07:57:13.774Z,0.30
2023-03-11T07:59:44.547Z,0.30
2023-03-11T08:02:15.318Z,0.30
2023-03-11T08:04:43.007Z,0.35
2023-03-11T08:07:10.179Z,0.20
2023-03-11T08:09:40.537Z,0.20
2023-03-11T08:12:12.352Z,0.25
2023-03-11T08:14:41.374Z,0.22
2023-03-11T08:17:08.081Z,0.20
2023-03-11T08:19:35.799Z,0.43
2023-03-11T08:22:05.160Z,0.40
2023-03-11T08:24:32.825Z,0.40
2023-03-11T08:26:59.311Z,0.40
2023-03-11T08:29:26.210Z,0.50
2023-03-11T08:34:43.119Z,0.30
2023-03-11T08:37:10.145Z,0.20
2023-03-11T08:39:41.893Z,0.30
2023-03-11T08:42:13.773Z,0.22
2023-03-11T08:44:41.274Z,0.30
2023-03-11T08:47:09.597Z,0.30
2023-03-11T08:52:29.691Z,0.20
2023-03-11T08:54:56.962Z,0.52
2023-03-11T08:57:25.303Z,0.32
2023-03-11T09:00:08.668Z,0.23
2023-03-11T09:02:37.277Z,0.40
2023-03-11T09:05:06.114Z,0.20
2023-03-11T09:07:47.585Z,0.30
2023-03-11T09:10:17.766Z,0.25
2023-03-11T09:12:52.940Z,0.30
2023-03-11T09:15:27.580Z,0.30
2023-03-11T09:17:58.436Z,0.20
2023-03-11T09:20:29.970Z,0.30
2023-03-11T09:22:58.427Z,0.40
2023-03-11T09:25:25.816Z,0.63
2023-03-11T09:27:57.727Z,0.30
2023-03-11T09:30:26.300Z,0.20
2023-03-11T09:32:53.614Z,0.15
2023-03-11T09:35:25.568Z,0.20
2023-03-11T09:37:59.747Z,0.40
2023-03-11T09:40:36.721Z,0.20
2023-03-11T09:43:38.907Z,0.20
2023-03-11T09:46:43.702Z,0.20
2023-03-11T09:49:40.128Z,0.13
2023-03-11T09:52:16.865Z,0.20
2023-03-11T09:54:48.661Z,0.20
2023-03-11T09:57:28.335Z,0.60
2023-03-11T10:00:06.233Z,0.50
2023-03-11T10:02:38.068Z,0.30
2023-03-11T10:05:13.575Z,0.20
2023-03-11T10:07:45.703Z,0.25
2023-03-11T10:10:17.956Z,0.20
2023-03-11T10:12:54.612Z,0.20
2023-03-11T10:15:49.460Z,0.30
2023-03-11T10:18:51.195Z,0.30
2023-03-11T10:21:34.806Z,0.57
2023-03-11T10:24:15.251Z,1.77
2023-03-11T10:27:01.586Z,0.30
2023-03-11T10:29:34.296Z,0.40
2023-03-11T10:32:10.682Z,0.20
2023-03-11T10:34:55.186Z,0.45
2023-03-11T10:37:48.027Z,0.43
2023-03-11T10:40:35.918Z,0.30
2023-03-11T10:45:54.772Z,0.47
2023-03-11T10:51:26.428Z,0.30
2023-03-11T10:53:58.298Z,0.50
2023-03-11T10:56:47.671Z,0.45
2023-03-11T11:00:17.511Z,0.30
2023-03-11T11:02:58.263Z,0.40
2023-03-11T11:06:03.314Z,0.40
2023-03-11T11:08:37.208Z,0.30
2023-03-11T11:11:04.660Z,0.20
2023-03-11T11:16:15.859Z,0.50
2023-03-11T11:19:09.997Z,0.32
2023-03-11T11:21:51.060Z,0.20
2023-03-11T11:24:48.187Z,0.40
2023-03-11T11:27:30.394Z,0.20
2023-03-11T11:30:09.816Z,0.20
2023-03-11T11:32:38.577Z,0.20
2023-03-11T11:35:09.019Z,0.22
2023-03-11T11:38:08.539Z,0.20
2023-03-11T11:40:35.324Z,0.30
2023-03-11T11:43:16.826Z,0.20
2023-03-11T11:45:47.540Z,0.20
2023-03-11T11:48:35.008Z,0.35
2023-03-11T11:51:14.130Z,0.20
2023-03-11T11:53:47.445Z,0.60
2023-03-11T11:56:21.561Z,0.40
2023-03-11T11:58:48.680Z,0.30
2023-03-11T12:01:48.541Z,0.40
2023-03-11T12:04:45.481Z,0.40
2023-03-11T12:07:33.581Z,0.27
2023-03-11T12:10:21.382Z,0.20
2023-03-11T12:13:20.842Z,0.47
2023-03-11T12:16:01.825Z,0.55
2023-03-11T12:18:37.943Z,0.40
2023-03-11T12:21:22.454Z,0.40
2023-03-11T12:24:07.797Z,0.20
2023-03-11T12:26:46.894Z,0.30
2023-03-11T12:29:31.992Z,0.30
2023-03-11T12:32:01.957Z,0.40
2023-03-11T12:34:35.309Z,0.30
2023-03-11T12:37:03.467Z,0.32
2023-03-11T12:39:33.755Z,0.25
2023-03-11T12:42:25.366Z,0.20
2023-03-11T12:44:54.061Z,0.30
2023-03-11T12:47:40.771Z,0.30
2023-03-11T12:50:43.765Z,0.28
2023-03-11T12:53:19.693Z,0.30
2023-03-11T12:59:41.073Z,0.30
2023-03-11T13:02:10.616Z,0.30
2023-03-11T13:05:40.279Z,0.28
2023-03-11T13:08:41.890Z,0.20
2023-03-11T13:11:27.231Z,0.10
2023-03-11T13:13:55.265Z,0.20
2023-03-11T13:16:21.698Z,0.13
2023-03-11T13:19:14.311Z,0.20
2023-03-11T13:21:42.424Z,0.15
2023-03-11T13:24:27.848Z,0.20
2023-03-11T13:27:23.424Z,0.10
2023-03-11T13:30:08.423Z,0.10
2023-03-11T13:32:50.239Z,0.20
2023-03-11T13:36:01.314Z,0.20
2023-03-11T13:38:46.175Z,0.20
2023-03-11T13:41:44.572Z,0.10
2023-03-11T13:44:28.341Z,0.20
2023-03-11T13:47:21.864Z,0.20
2023-03-11T13:52:46.681Z,0.10
2023-03-11T13:58:42.735Z,0.10
2023-03-11T14:01:17.835Z,0.10
2023-03-11T14:03:52.377Z,0.10
2023-03-11T14:06:20.136Z,0.10
2023-03-11T14:08:55.271Z,0.10
2023-03-11T14:11:27.190Z,0.10
2023-03-11T14:13:54.271Z,0.20
2023-03-11T14:16:44.473Z,0.10
2023-03-11T14:19:19.484Z,0.20
2023-03-11T14:21:49.902Z,0.10
2023-03-11T14:24:20.550Z,0.03
2023-03-11T14:27:02.916Z,0.30
2023-03-11T14:29:53.664Z,0.20
2023-03-11T14:32:29.590Z,0.10
2023-03-11T14:34:57.032Z,0.20
2023-03-11T14:37:38.657Z,0.10
2023-03-11T14:40:27.993Z,0.30
2023-03-11T14:43:17.240Z,0.20
2023-03-11T14:45:45.508Z,0.10
2023-03-11T14:48:24.153Z,0.28
2023-03-11T14:50:58.742Z,0.10
2023-03-11T14:54:08.437Z,0.10
2023-03-11T14:56:41.768Z,0.20
2023-03-11T14:59:18.593Z,0.10
2023-03-11T15:01:47.407Z,0.10
2023-03-11T15:04:23.871Z,0.20
2023-03-11T15:06:52.638Z,0.10
2023-03-11T15:09:24.040Z,0.20
2023-03-11T15:12:03.348Z,0.20
2023-03-11T15:14:53.079Z,0.10
2023-03-11T15:17:35.331Z,0.30
2023-03-11T15:20:24.957Z,0.10
2023-03-11T15:23:06.791Z,0.30
2023-03-11T15:25:37.346Z,0.10
2023-03-11T15:28:39.708Z,0.30
2023-03-11T15:31:28.913Z,0.40
2023-03-11T15:33:57.486Z,0.30
2023-03-11T15:36:39.613Z,0.20
2023-03-11T15:39:36.912Z,0.10
2023-03-11T15:42:08.170Z,0.20
2023-03-11T15:44:41.037Z,0.10
2023-03-11T15:47:33.664Z,0.10
2023-03-11T15:50:20.536Z,0.22
2023-03-11T15:52:55.642Z,0.30
2023-03-11T15:55:24.003Z,0.17
2023-03-11T15:57:54.515Z,0.60
2023-03-11T16:03:04.983Z,0.20
2023-03-11T16:05:34.955Z,0.05
2023-03-11T16:10:44.996Z,0.20
2023-03-11T16:13:24.996Z,0.10
2023-03-11T16:15:53.538Z,0.17
2023-03-11T16:18:20.758Z,0.17
2023-03-11T16:20:51.480Z,0.22
2023-03-11T16:23:50.277Z,0.20
2023-03-11T16:26:18.472Z,0.30
2023-03-11T16:28:49.413Z,0.10
2023-03-11T16:31:16.732Z,0.30
2023-03-11T16:33:45.321Z,0.20
2023-03-11T16:36:11.858Z,0.17
2023-03-11T16:38:50.406Z,0.45
2023-03-11T16:41:17.545Z,0.40
2023-03-11T16:43:45.033Z,0.28
2023-03-11T16:46:11.775Z,0.20
2023-03-11T16:48:38.318Z,0.20
2023-03-11T16:51:04.993Z,0.30
2023-03-11T16:56:14.044Z,0.43
2023-03-11T16:58:41.803Z,0.68
2023-03-11T17:01:12.330Z,0.43
2023-03-11T17:03:42.693Z,0.40
2023-03-11T17:06:10.295Z,0.30
2023-03-11T17:08:44.429Z,0.60
2023-03-11T17:11:20.409Z,0.47
2023-03-11T17:13:46.972Z,0.53
2023-03-11T17:16:13.598Z,1.13
2023-03-11T17:18:40.246Z,0.88
2023-03-11T17:21:14.031Z,0.82
2023-03-11T17:37:11.564Z,0.65
2023-03-11T17:39:53.750Z,1.00
2023-03-11T17:42:29.212Z,0.80
2023-03-11T17:44:57.407Z,0.55
2023-03-11T17:47:28.736Z,0.55
2023-03-11T17:49:56.036Z,0.30
2023-03-11T17:52:37.815Z,0.30
2023-03-11T17:55:04.697Z,0.68
2023-03-11T17:57:44.538Z,0.60
2023-03-11T18:00:14.819Z,0.63
2023-03-11T18:02:47.004Z,2.15
2023-03-11T18:05:24.626Z,2.00
2023-03-11T18:13:15.338Z,1.73
2023-03-11T18:15:45.902Z,1.52
2023-03-11T18:18:14.108Z,1.70
2023-03-11T18:20:41.208Z,1.85
2023-03-11T18:23:22.510Z,2.78
2023-03-11T18:25:54.989Z,2.78
2023-03-11T18:28:22.498Z,2.53
2023-03-11T18:30:54.719Z,1.47
2023-03-11T18:33:23.381Z,1.40
2023-03-11T18:35:59.824Z,2.67
2023-03-11T18:38:36.591Z,2.80
2023-03-11T18:41:08.796Z,3.88
2023-03-11T18:43:46.695Z,3.17
2023-03-11T18:51:59.297Z,1.40
2023-03-11T18:54:38.217Z,1.08
2023-03-11T18:57:08.501Z,0.63
2023-03-11T18:59:44.204Z,0.80
2023-03-11T19:02:19.338Z,1.08
2023-03-11T19:04:48.354Z,1.30
2023-03-11T19:07:14.885Z,0.77
2023-03-11T19:09:42.407Z,0.73
2023-03-11T19:12:09.036Z,0.50
2023-03-11T19:14:40.472Z,0.70
2023-03-11T19:17:12.289Z,1.15
2023-03-11T19:19:44.313Z,0.45
2023-03-11T19:22:25.659Z,1.23
2023-03-11T19:24:57.837Z,1.50
2023-03-11T19:27:33.426Z,2.88
2023-03-11T19:30:20.825Z,3.17
2023-03-11T19:32:56.132Z,3.08
2023-03-11T19:35:30.850Z,2.73
2023-03-11T19:38:02.394Z,2.70
2023-03-11T19:40:30.331Z,2.00
2023-03-11T19:43:22.402Z,1.83
2023-03-11T19:54:03.520Z,1.98
2023-03-11T19:56:39.932Z,1.50
2023-03-11T19:59:39.705Z,0.77
2023-03-11T20:02:07.476Z,1.07
2023-03-11T20:04:34.462Z,1.35
2023-03-11T20:07:22.287Z,1.17
2023-03-11T20:09:54.878Z,0.47
2023-03-11T20:12:24.426Z,1.00
2023-03-11T20:14:55.353Z,0.60
2023-03-11T20:17:27.807Z,0.75
2023-03-11T20:19:54.989Z,1.00
2023-03-11T20:22:22.431Z,1.63
2023-03-11T20:30:16.138Z,8.23
2023-03-11T20:32:47.797Z,6.97
2023-03-11T20:35:19.586Z,5.03
2023-03-11T20:37:55.450Z,3.55
2023-03-11T20:40:23.964Z,2.67
2023-03-11T20:42:57.443Z,2.55
2023-03-11T20:45:36.942Z,4.05
2023-03-11T20:48:14.677Z,6.05
2023-03-11T20:50:42.729Z,4.95
2023-03-11T20:53:13.453Z,3.13
2023-03-11T21:01:36.746Z,1.17
2023-03-11T21:04:04.576Z,1.45
2023-03-11T21:06:37.719Z,1.20
2023-03-11T21:09:08.036Z,0.90
2023-03-11T21:11:35.987Z,1.50
2023-03-11T21:14:04.679Z,3.67
2023-03-11T21:19:15.699Z,1.90
2023-03-11T21:21:45.004Z,3.30
2023-03-11T21:24:16.657Z,3.15
2023-03-11T21:26:51.391Z,2.50
2023-03-11T21:29:22.827Z,1.45
2023-03-11T21:31:49.474Z,1.80
2023-03-11T21:34:16.183Z,2.42
2023-03-11T21:36:42.740Z,2.35
2023-03-11T21:39:10.938Z,2.97
2023-03-11T21:41:37.544Z,3.45
2023-03-11T21:44:04.079Z,3.07
2023-03-11T21:46:35.487Z,2.95
2023-03-11T21:51:51.801Z,2.30
2023-03-11T21:54:23.058Z,1.77
2023-03-11T21:56:50.360Z,0.70
2023-03-11T21:59:25.122Z,1.08
2023-03-11T22:01:53.905Z,0.85
2023-03-11T22:07:03.474Z,1.10
2023-03-11T22:09:30.398Z,0.90
2023-03-11T22:12:03.237Z,0.65
2023-03-11T22:14:30.912Z,0.95
2023-03-11T22:16:59.905Z,1.30
2023-03-11T22:19:27.299Z,1.17
2023-03-11T22:21:55.732Z,1.30
2023-03-11T22:27:05.437Z,1.20
2023-03-11T22:29:40.162Z,1.80
2023-03-11T22:32:07.367Z,1.05
2023-03-11T22:34:50.402Z,1.40
2023-03-11T22:39:59.568Z,1.27
2023-03-11T22:42:37.303Z,1.40
2023-03-11T22:47:53.155Z,0.97
2023-03-11T22:50:19.851Z,1.00
2023-03-11T22:52:46.305Z,0.98
2023-03-11T22:55:14.031Z,0.70
2023-03-11T22:57:40.664Z,1.05
2023-03-11T23:00:17.799Z,1.30
2023-03-11T23:05:32.679Z,1.23
2023-03-11T23:07:59.525Z,1.38
2023-03-11T23:10:27.452Z,1.08
2023-03-11T23:12:56.453Z,1.50
2023-03-11T23:15:24.564Z,1.00
2023-03-11T23:18:00.474Z,1.25
2023-03-11T23:20:28.537Z,0.88
2023-03-11T23:22:55.127Z,1.13
2023-03-11T23:25:21.829Z,1.40
2023-03-11T23:27:48.305Z,1.77
2023-03-11T23:30:16.763Z,2.08
2023-03-11T23:32:44.529Z,1.52
2023-03-11T23:35:12.379Z,1.70
2023-03-11T23:37:42.316Z,1.30
2023-03-11T23:40:10.018Z,1.67
2023-03-11T23:42:40.331Z,1.27
2023-03-11T23:45:10.103Z,1.25
2023-03-11T23:47:44.427Z,1.60
2023-03-11T23:50:13.392Z,1.57
2023-03-11T23:52:40.602Z,2.20
2023-03-11T23:55:15.151Z,2.00
2023-03-11T23:57:49.053Z,1.25
